sensor_id;sensor_type;location;lat;lon;timestamp;P1;durP1;ratioP1;P2;durP2;ratioP2
3975;SDS011;2002;48.812;9.180;2023-03-24T00:02:06;3.57;;;3.27;;
3975;SDS011;2002;48.812;9.180;2023-03-24T00:04:32;3.50;;;3.20;;
3975;SDS011;2002;48.812;9.180;2023-03-24T00:06:58;3.73;;;3.33;;
3975;SDS011;2002;48.812;9.180;2023-03-24T00:09:25;4.00;;;3.60;;
3975;SDS011;2002;48.812;9.180;2023-03-24T00:11:53;3.63;;;2.87;;
3975;SDS011;2002;48.812;9.180;2023-03-24T00:14:19;3.90;;;3.20;;
3975;SDS011;2002;48.812;9.180;2023-03-24T00:16:45;3.10;;;2.83;;
3975;SDS011;2002;48.812;9.180;2023-03-24T00:19:11;4.87;;;3.00;;
3975;SDS011;2002;48.812;9.180;2023-03-24T00:21:40;5.17;;;4.60;;
3975;SDS011;2002;48.812;9.180;2023-03-24T00:24:06;5.10;;;4.47;;
3975;SDS011;2002;48.812;9.180;2023-03-24T00:26:36;5.00;;;4.20;;
3975;SDS011;2002;48.812;9.180;2023-03-24T00:29:04;4.93;;;4.20;;
3975;SDS011;2002;48.812;9.180;2023-03-24T00:31:31;5.10;;;4.60;;
3975;SDS011;2002;48.812;9.180;2023-03-24T00:33:57;5.00;;;4.13;;
3975;SDS011;2002;48.812;9.180;2023-03-24T00:36:24;3.90;;;3.50;;
3975;SDS011;2002;48.812;9.180;2023-03-24T00:38:51;4.10;;;3.70;;
3975;SDS011;2002;48.812;9.180;2023-03-24T00:41:17;5.13;;;4.57;;
3975;SDS011;2002;48.812;9.180;2023-03-24T00:43:44;5.03;;;4.30;;
3975;SDS011;2002;48.812;9.180;2023-03-24T00:46:11;4.97;;;4.00;;
3975;SDS011;2002;48.812;9.180;2023-03-24T00:49:05;5.30;;;4.50;;
3975;SDS011;2002;48.812;9.180;2023-03-24T00:51:33;5.07;;;3.70;;
3975;SDS011;2002;48.812;9.180;2023-03-24T00:54:00;5.23;;;4.70;;
3975;SDS011;2002;48.812;9.180;2023-03-24T00:56:26;4.90;;;4.40;;
3975;SDS011;2002;48.812;9.180;2023-03-24T00:58:55;4.90;;;3.93;;
3975;SDS011;2002;48.812;9.180;2023-03-24T01:01:22;3.80;;;3.17;;
3975;SDS011;2002;48.812;9.180;2023-03-24T01:03:51;4.83;;;4.30;;
3975;SDS011;2002;48.812;9.180;2023-03-24T01:06:17;3.47;;;3.17;;
3975;SDS011;2002;48.812;9.180;2023-03-24T01:08:46;4.80;;;4.40;;
3975;SDS011;2002;48.812;9.180;2023-03-24T01:11:13;4.50;;;4.10;;
3975;SDS011;2002;48.812;9.180;2023-03-24T01:13:39;4.30;;;3.90;;
3975;SDS011;2002;48.812;9.180;2023-03-24T01:16:05;4.23;;;3.60;;
3975;SDS011;2002;48.812;9.180;2023-03-24T01:18:31;4.20;;;3.70;;
3975;SDS011;2002;48.812;9.180;2023-03-24T01:20:58;4.70;;;4.20;;
3975;SDS011;2002;48.812;9.180;2023-03-24T01:23:25;4.60;;;4.20;;
3975;SDS011;2002;48.812;9.180;2023-03-24T01:25:51;4.30;;;3.90;;
3975;SDS011;2002;48.812;9.180;2023-03-24T01:28:19;3.73;;;3.33;;
3975;SDS011;2002;48.812;9.180;2023-03-24T01:30:51;4.83;;;4.33;;
3975;SDS011;2002;48.812;9.180;2023-03-24T01:33:17;6.80;;;5.20;;
3975;SDS011;2002;48.812;9.180;2023-03-24T01:35:44;5.00;;;4.50;;
3975;SDS011;2002;48.812;9.180;2023-03-24T01:38:11;4.33;;;3.93;;
3975;SDS011;2002;48.812;9.180;2023-03-24T01:40:39;5.00;;;4.03;;
3975;SDS011;2002;48.812;9.180;2023-03-24T01:43:19;4.13;;;3.83;;
3975;SDS011;2002;48.812;9.180;2023-03-24T01:45:53;4.70;;;4.17;;
3975;SDS011;2002;48.812;9.180;2023-03-24T01:51:03;4.30;;;3.90;;
3975;SDS011;2002;48.812;9.180;2023-03-24T01:53:44;6.13;;;5.63;;
3975;SDS011;2002;48.812;9.180;2023-03-24T01:56:13;5.53;;;4.83;;
3975;SDS011;2002;48.812;9.180;2023-03-24T01:58:40;5.10;;;4.40;;
3975;SDS011;2002;48.812;9.180;2023-03-24T02:01:11;4.60;;;4.20;;
3975;SDS011;2002;48.812;9.180;2023-03-24T02:03:37;5.90;;;4.47;;
3975;SDS011;2002;48.812;9.180;2023-03-24T02:06:04;4.80;;;4.40;;
3975;SDS011;2002;48.812;9.180;2023-03-24T02:08:40;4.63;;;4.23;;
3975;SDS011;2002;48.812;9.180;2023-03-24T02:11:12;4.83;;;4.43;;
3975;SDS011;2002;48.812;9.180;2023-03-24T02:13:38;5.20;;;4.40;;
3975;SDS011;2002;48.812;9.180;2023-03-24T02:16:12;4.57;;;4.07;;
3975;SDS011;2002;48.812;9.180;2023-03-24T02:18:50;5.90;;;5.07;;
3975;SDS011;2002;48.812;9.180;2023-03-24T02:21:28;5.23;;;4.30;;
3975;SDS011;2002;48.812;9.180;2023-03-24T02:26:58;5.90;;;5.40;;
3975;SDS011;2002;48.812;9.180;2023-03-24T02:32:45;5.20;;;4.70;;
3975;SDS011;2002;48.812;9.180;2023-03-24T02:44:23;4.20;;;3.77;;
3975;SDS011;2002;48.812;9.180;2023-03-24T02:47:08;4.70;;;4.30;;
3975;SDS011;2002;48.812;9.180;2023-03-24T02:49:45;4.07;;;3.67;;
3975;SDS011;2002;48.812;9.180;2023-03-24T02:52:28;5.20;;;4.37;;
3975;SDS011;2002;48.812;9.180;2023-03-24T02:55:17;5.50;;;4.40;;
3975;SDS011;2002;48.812;9.180;2023-03-24T03:06:04;6.20;;;5.63;;
3975;SDS011;2002;48.812;9.180;2023-03-24T03:08:32;6.83;;;5.87;;
3975;SDS011;2002;48.812;9.180;2023-03-24T03:11:00;5.90;;;4.70;;
3975;SDS011;2002;48.812;9.180;2023-03-24T03:16:08;4.53;;;4.10;;
3975;SDS011;2002;48.812;9.180;2023-03-24T03:18:39;5.17;;;4.70;;
3975;SDS011;2002;48.812;9.180;2023-03-24T03:21:14;5.57;;;4.50;;
3975;SDS011;2002;48.812;9.180;2023-03-24T03:23:47;5.37;;;4.87;;
3975;SDS011;2002;48.812;9.180;2023-03-24T03:26:17;4.40;;;3.60;;
3975;SDS011;2002;48.812;9.180;2023-03-24T03:28:51;4.60;;;4.20;;
3975;SDS011;2002;48.812;9.180;2023-03-24T03:31:22;5.60;;;5.10;;
3975;SDS011;2002;48.812;9.180;2023-03-24T03:34:00;5.17;;;4.40;;
3975;SDS011;2002;48.812;9.180;2023-03-24T03:36:28;5.13;;;4.30;;
3975;SDS011;2002;48.812;9.180;2023-03-24T03:39:01;5.93;;;4.40;;
3975;SDS011;2002;48.812;9.180;2023-03-24T03:41:28;5.37;;;4.47;;
3975;SDS011;2002;48.812;9.180;2023-03-24T03:43:54;4.73;;;4.13;;
3975;SDS011;2002;48.812;9.180;2023-03-24T03:46:20;4.67;;;4.17;;
3975;SDS011;2002;48.812;9.180;2023-03-24T03:48:46;6.00;;;5.37;;
3975;SDS011;2002;48.812;9.180;2023-03-24T03:51:12;5.27;;;4.77;;
3975;SDS011;2002;48.812;9.180;2023-03-24T03:53:49;6.00;;;4.43;;
3975;SDS011;2002;48.812;9.180;2023-03-24T03:56:18;4.23;;;3.83;;
3975;SDS011;2002;48.812;9.180;2023-03-24T03:58:46;5.80;;;4.50;;
3975;SDS011;2002;48.812;9.180;2023-03-24T04:01:14;4.93;;;3.90;;
3975;SDS011;2002;48.812;9.180;2023-03-24T04:09:58;4.70;;;4.10;;
3975;SDS011;2002;48.812;9.180;2023-03-24T04:13:06;4.63;;;4.13;;
3975;SDS011;2002;48.812;9.180;2023-03-24T04:15:50;4.67;;;4.10;;
3975;SDS011;2002;48.812;9.180;2023-03-24T04:18:25;5.33;;;4.83;;
3975;SDS011;2002;48.812;9.180;2023-03-24T04:24:00;4.73;;;4.30;;
3975;SDS011;2002;48.812;9.180;2023-03-24T04:29:37;5.00;;;4.30;;
3975;SDS011;2002;48.812;9.180;2023-03-24T04:32:34;3.90;;;3.37;;
3975;SDS011;2002;48.812;9.180;2023-03-24T04:35:24;5.63;;;4.50;;
3975;SDS011;2002;48.812;9.180;2023-03-24T04:38:23;5.13;;;4.70;;
3975;SDS011;2002;48.812;9.180;2023-03-24T04:40:52;6.07;;;5.43;;
3975;SDS011;2002;48.812;9.180;2023-03-24T04:43:20;4.20;;;3.80;;
3975;SDS011;2002;48.812;9.180;2023-03-24T04:45:51;6.80;;;5.40;;
3975;SDS011;2002;48.812;9.180;2023-03-24T04:48:22;5.63;;;5.03;;
3975;SDS011;2002;48.812;9.180;2023-03-24T04:50:52;5.00;;;4.23;;
3975;SDS011;2002;48.812;9.180;2023-03-24T04:53:20;4.90;;;4.40;;
3975;SDS011;2002;48.812;9.180;2023-03-24T04:58:24;5.63;;;4.87;;
3975;SDS011;2002;48.812;9.180;2023-03-24T05:00:50;5.20;;;4.70;;
3975;SDS011;2002;48.812;9.180;2023-03-24T05:03:16;4.93;;;4.40;;
3975;SDS011;2002;48.812;9.180;2023-03-24T05:05:43;4.83;;;4.33;;
3975;SDS011;2002;48.812;9.180;2023-03-24T05:08:11;5.30;;;4.77;;
3975;SDS011;2002;48.812;9.180;2023-03-24T05:10:37;4.93;;;4.30;;
3975;SDS011;2002;48.812;9.180;2023-03-24T05:13:03;4.50;;;4.10;;
3975;SDS011;2002;48.812;9.180;2023-03-24T05:15:29;4.80;;;4.30;;
3975;SDS011;2002;48.812;9.180;2023-03-24T05:17:55;3.90;;;3.60;;
3975;SDS011;2002;48.812;9.180;2023-03-24T05:20:21;4.87;;;4.47;;
3975;SDS011;2002;48.812;9.180;2023-03-24T05:22:47;4.77;;;4.37;;
3975;SDS011;2002;48.812;9.180;2023-03-24T05:25:13;6.67;;;5.47;;
3975;SDS011;2002;48.812;9.180;2023-03-24T05:27:40;5.50;;;4.90;;
3975;SDS011;2002;48.812;9.180;2023-03-24T05:30:06;4.67;;;4.17;;
3975;SDS011;2002;48.812;9.180;2023-03-24T05:32:32;4.10;;;3.70;;
3975;SDS011;2002;48.812;9.180;2023-03-24T05:34:58;5.27;;;4.60;;
3975;SDS011;2002;48.812;9.180;2023-03-24T05:37:23;4.40;;;3.90;;
3975;SDS011;2002;48.812;9.180;2023-03-24T05:39:49;5.27;;;4.57;;
3975;SDS011;2002;48.812;9.180;2023-03-24T05:42:15;6.10;;;5.00;;
3975;SDS011;2002;48.812;9.180;2023-03-24T05:44:41;4.70;;;4.30;;
3975;SDS011;2002;48.812;9.180;2023-03-24T05:47:07;5.70;;;5.13;;
3975;SDS011;2002;48.812;9.180;2023-03-24T05:49:33;5.63;;;5.03;;
3975;SDS011;2002;48.812;9.180;2023-03-24T05:51:59;6.00;;;5.00;;
3975;SDS011;2002;48.812;9.180;2023-03-24T05:54:24;5.27;;;4.77;;
3975;SDS011;2002;48.812;9.180;2023-03-24T05:56:50;6.30;;;5.70;;
3975;SDS011;2002;48.812;9.180;2023-03-24T05:59:16;6.30;;;5.30;;
3975;SDS011;2002;48.812;9.180;2023-03-24T06:01:41;6.67;;;6.07;;
3975;SDS011;2002;48.812;9.180;2023-03-24T06:04:07;5.87;;;4.80;;
3975;SDS011;2002;48.812;9.180;2023-03-24T06:06:33;5.80;;;5.27;;
3975;SDS011;2002;48.812;9.180;2023-03-24T06:08:58;7.23;;;6.20;;
3975;SDS011;2002;48.812;9.180;2023-03-24T06:11:26;6.80;;;5.10;;
3975;SDS011;2002;48.812;9.180;2023-03-24T06:13:52;6.30;;;5.40;;
3975;SDS011;2002;48.812;9.180;2023-03-24T06:16:23;6.53;;;5.93;;
3975;SDS011;2002;48.812;9.180;2023-03-24T06:18:52;7.23;;;6.10;;
3975;SDS011;2002;48.812;9.180;2023-03-24T06:21:18;5.87;;;5.27;;
3975;SDS011;2002;48.812;9.180;2023-03-24T06:23:44;7.17;;;6.43;;
3975;SDS011;2002;48.812;9.180;2023-03-24T06:26:10;6.50;;;5.60;;
3975;SDS011;2002;48.812;9.180;2023-03-24T06:28:38;5.73;;;5.23;;
3975;SDS011;2002;48.812;9.180;2023-03-24T06:31:06;6.50;;;5.90;;
3975;SDS011;2002;48.812;9.180;2023-03-24T06:33:42;7.57;;;5.80;;
3975;SDS011;2002;48.812;9.180;2023-03-24T06:36:08;5.80;;;5.17;;
3975;SDS011;2002;48.812;9.180;2023-03-24T06:38:35;5.83;;;5.27;;
3975;SDS011;2002;48.812;9.180;2023-03-24T06:41:01;5.60;;;5.10;;
3975;SDS011;2002;48.812;9.180;2023-03-24T06:43:27;5.27;;;4.60;;
3975;SDS011;2002;48.812;9.180;2023-03-24T06:45:54;7.50;;;6.80;;
3975;SDS011;2002;48.812;9.180;2023-03-24T06:48:20;7.30;;;6.47;;
3975;SDS011;2002;48.812;9.180;2023-03-24T06:50:46;7.10;;;6.40;;
3975;SDS011;2002;48.812;9.180;2023-03-24T06:53:11;6.53;;;5.83;;
3975;SDS011;2002;48.812;9.180;2023-03-24T06:55:37;5.77;;;5.20;;
3975;SDS011;2002;48.812;9.180;2023-03-24T06:58:02;5.90;;;5.37;;
3975;SDS011;2002;48.812;9.180;2023-03-24T07:00:28;7.70;;;5.90;;
3975;SDS011;2002;48.812;9.180;2023-03-24T07:02:54;6.10;;;5.47;;
3975;SDS011;2002;48.812;9.180;2023-03-24T07:05:20;6.37;;;5.77;;
3975;SDS011;2002;48.812;9.180;2023-03-24T07:07:47;7.63;;;6.70;;
3975;SDS011;2002;48.812;9.180;2023-03-24T07:10:14;5.57;;;5.07;;
3975;SDS011;2002;48.812;9.180;2023-03-24T07:12:40;6.20;;;5.60;;
3975;SDS011;2002;48.812;9.180;2023-03-24T07:15:06;7.17;;;5.80;;
3975;SDS011;2002;48.812;9.180;2023-03-24T07:17:33;5.23;;;4.77;;
3975;SDS011;2002;48.812;9.180;2023-03-24T07:19:59;6.63;;;5.97;;
3975;SDS011;2002;48.812;9.180;2023-03-24T07:22:25;6.10;;;5.43;;
3975;SDS011;2002;48.812;9.180;2023-03-24T07:24:51;6.20;;;5.10;;
3975;SDS011;2002;48.812;9.180;2023-03-24T07:27:16;6.10;;;5.50;;
3975;SDS011;2002;48.812;9.180;2023-03-24T07:29:42;6.80;;;6.10;;
3975;SDS011;2002;48.812;9.180;2023-03-24T07:32:08;7.37;;;6.57;;
3975;SDS011;2002;48.812;9.180;2023-03-24T07:34:33;6.87;;;5.70;;
3975;SDS011;2002;48.812;9.180;2023-03-24T07:37:00;7.60;;;6.13;;
3975;SDS011;2002;48.812;9.180;2023-03-24T07:39:26;6.87;;;5.43;;
3975;SDS011;2002;48.812;9.180;2023-03-24T07:41:52;6.00;;;5.50;;
3975;SDS011;2002;48.812;9.180;2023-03-24T07:44:17;6.10;;;4.93;;
3975;SDS011;2002;48.812;9.180;2023-03-24T07:46:43;5.60;;;5.10;;
3975;SDS011;2002;48.812;9.180;2023-03-24T07:49:10;6.17;;;5.57;;
3975;SDS011;2002;48.812;9.180;2023-03-24T07:51:36;6.87;;;6.17;;
3975;SDS011;2002;48.812;9.180;2023-03-24T07:54:02;5.70;;;5.20;;
3975;SDS011;2002;48.812;9.180;2023-03-24T07:56:27;5.67;;;5.07;;
3975;SDS011;2002;48.812;9.180;2023-03-24T07:58:53;6.83;;;6.13;;
3975;SDS011;2002;48.812;9.180;2023-03-24T08:01:19;5.30;;;4.80;;
3975;SDS011;2002;48.812;9.180;2023-03-24T08:03:44;7.23;;;6.30;;
3975;SDS011;2002;48.812;9.180;2023-03-24T08:06:13;5.90;;;5.30;;
3975;SDS011;2002;48.812;9.180;2023-03-24T08:08:39;6.07;;;5.47;;
3975;SDS011;2002;48.812;9.180;2023-03-24T08:11:05;6.47;;;5.33;;
3975;SDS011;2002;48.812;9.180;2023-03-24T08:13:31;6.60;;;5.87;;
3975;SDS011;2002;48.812;9.180;2023-03-24T08:15:57;6.23;;;5.50;;
3975;SDS011;2002;48.812;9.180;2023-03-24T08:18:22;8.27;;;6.40;;
3975;SDS011;2002;48.812;9.180;2023-03-24T08:20:49;5.50;;;5.00;;
3975;SDS011;2002;48.812;9.180;2023-03-24T08:23:19;5.87;;;5.30;;
3975;SDS011;2002;48.812;9.180;2023-03-24T08:25:45;6.53;;;5.73;;
3975;SDS011;2002;48.812;9.180;2023-03-24T08:28:11;6.47;;;5.87;;
3975;SDS011;2002;48.812;9.180;2023-03-24T08:30:37;4.97;;;4.43;;
3975;SDS011;2002;48.812;9.180;2023-03-24T08:33:03;5.27;;;4.77;;
3975;SDS011;2002;48.812;9.180;2023-03-24T08:35:30;5.03;;;4.57;;
3975;SDS011;2002;48.812;9.180;2023-03-24T08:37:58;5.70;;;5.07;;
3975;SDS011;2002;48.812;9.180;2023-03-24T08:40:25;5.50;;;5.00;;
3975;SDS011;2002;48.812;9.180;2023-03-24T08:42:53;5.67;;;5.17;;
3975;SDS011;2002;48.812;9.180;2023-03-24T08:45:22;5.73;;;5.13;;
3975;SDS011;2002;48.812;9.180;2023-03-24T08:47:51;5.90;;;5.40;;
3975;SDS011;2002;48.812;9.180;2023-03-24T08:50:22;5.60;;;5.10;;
3975;SDS011;2002;48.812;9.180;2023-03-24T08:52:51;5.60;;;5.10;;
3975;SDS011;2002;48.812;9.180;2023-03-24T08:55:17;6.53;;;5.83;;
3975;SDS011;2002;48.812;9.180;2023-03-24T08:57:44;6.63;;;4.70;;
3975;SDS011;2002;48.812;9.180;2023-03-24T09:00:11;5.63;;;5.13;;
3975;SDS011;2002;48.812;9.180;2023-03-24T09:02:40;6.23;;;5.63;;
3975;SDS011;2002;48.812;9.180;2023-03-24T09:05:07;5.30;;;4.80;;
3975;SDS011;2002;48.812;9.180;2023-03-24T09:07:32;5.80;;;5.20;;
3975;SDS011;2002;48.812;9.180;2023-03-24T09:09:58;5.13;;;4.63;;
3975;SDS011;2002;48.812;9.180;2023-03-24T09:12:24;6.53;;;5.67;;
3975;SDS011;2002;48.812;9.180;2023-03-24T09:14:49;5.93;;;4.93;;
3975;SDS011;2002;48.812;9.180;2023-03-24T09:17:15;5.80;;;5.20;;
3975;SDS011;2002;48.812;9.180;2023-03-24T09:19:42;5.10;;;4.70;;
3975;SDS011;2002;48.812;9.180;2023-03-24T09:22:08;5.67;;;5.07;;
3975;SDS011;2002;48.812;9.180;2023-03-24T09:24:34;6.03;;;5.20;;
3975;SDS011;2002;48.812;9.180;2023-03-24T09:27:00;7.47;;;6.17;;
3975;SDS011;2002;48.812;9.180;2023-03-24T09:29:25;5.23;;;4.73;;
3975;SDS011;2002;48.812;9.180;2023-03-24T09:31:51;6.13;;;5.53;;
3975;SDS011;2002;48.812;9.180;2023-03-24T09:34:17;5.37;;;4.87;;
3975;SDS011;2002;48.812;9.180;2023-03-24T09:36:45;6.60;;;6.00;;
3975;SDS011;2002;48.812;9.180;2023-03-24T09:39:10;6.60;;;6.00;;
3975;SDS011;2002;48.812;9.180;2023-03-24T09:41:36;5.73;;;4.47;;
3975;SDS011;2002;48.812;9.180;2023-03-24T09:44:03;7.60;;;6.07;;
3975;SDS011;2002;48.812;9.180;2023-03-24T09:46:43;7.20;;;5.30;;
3975;SDS011;2002;48.812;9.180;2023-03-24T09:49:13;6.20;;;5.17;;
3975;SDS011;2002;48.812;9.180;2023-03-24T09:51:43;6.03;;;5.00;;
3975;SDS011;2002;48.812;9.180;2023-03-24T09:54:30;8.93;;;6.32;;
3975;SDS011;2002;48.812;9.180;2023-03-24T09:57:15;8.40;;;5.20;;
3975;SDS011;2002;48.812;9.180;2023-03-24T09:59:49;8.83;;;5.33;;
3975;SDS011;2002;48.812;9.180;2023-03-24T10:02:15;6.40;;;5.10;;
3975;SDS011;2002;48.812;9.180;2023-03-24T10:04:43;4.83;;;4.43;;
3975;SDS011;2002;48.812;9.180;2023-03-24T10:10:00;5.67;;;4.50;;
3975;SDS011;2002;48.812;9.180;2023-03-24T10:12:29;6.67;;;5.10;;
3975;SDS011;2002;48.812;9.180;2023-03-24T10:15:04;4.90;;;4.50;;
3975;SDS011;2002;48.812;9.180;2023-03-24T10:17:51;5.30;;;4.50;;
3975;SDS011;2002;48.812;9.180;2023-03-24T10:23:28;6.97;;;5.63;;
3975;SDS011;2002;48.812;9.180;2023-03-24T10:29:02;6.63;;;4.73;;
3975;SDS011;2002;48.812;9.180;2023-03-24T10:32:31;7.30;;;4.80;;
3975;SDS011;2002;48.812;9.180;2023-03-24T10:34:44;5.87;;;5.20;;
3975;SDS011;2002;48.812;9.180;2023-03-24T10:37:12;5.67;;;5.07;;
3975;SDS011;2002;48.812;9.180;2023-03-24T10:39:39;4.83;;;4.43;;
3975;SDS011;2002;48.812;9.180;2023-03-24T10:42:04;5.20;;;4.43;;
3975;SDS011;2002;48.812;9.180;2023-03-24T10:44:30;6.13;;;4.20;;
3975;SDS011;2002;48.812;9.180;2023-03-24T10:46:57;6.90;;;5.37;;
3975;SDS011;2002;48.812;9.180;2023-03-24T10:49:27;5.90;;;4.77;;
3975;SDS011;2002;48.812;9.180;2023-03-24T10:51:53;5.30;;;4.80;;
3975;SDS011;2002;48.812;9.180;2023-03-24T10:54:25;5.20;;;4.27;;
3975;SDS011;2002;48.812;9.180;2023-03-24T10:59:25;5.23;;;4.70;;
3975;SDS011;2002;48.812;9.180;2023-03-24T11:02:00;6.70;;;4.73;;
3975;SDS011;2002;48.812;9.180;2023-03-24T11:04:39;5.10;;;4.60;;
3975;SDS011;2002;48.812;9.180;2023-03-24T11:07:18;5.30;;;4.80;;
3975;SDS011;2002;48.812;9.180;2023-03-24T11:12:58;5.63;;;4.70;;
3975;SDS011;2002;48.812;9.180;2023-03-24T11:15:28;4.43;;;4.03;;
3975;SDS011;2002;48.812;9.180;2023-03-24T11:17:59;5.20;;;4.70;;
3975;SDS011;2002;48.812;9.180;2023-03-24T11:20:35;6.17;;;5.13;;
3975;SDS011;2002;48.812;9.180;2023-03-24T11:25:39;6.50;;;5.20;;
3975;SDS011;2002;48.812;9.180;2023-03-24T11:28:16;5.40;;;4.20;;
3975;SDS011;2002;48.812;9.180;2023-03-24T11:30:52;5.10;;;4.70;;
3975;SDS011;2002;48.812;9.180;2023-03-24T11:33:20;5.20;;;4.57;;
3975;SDS011;2002;48.812;9.180;2023-03-24T11:35:50;5.60;;;4.47;;
3975;SDS011;2002;48.812;9.180;2023-03-24T11:38:17;5.23;;;4.33;;
3975;SDS011;2002;48.812;9.180;2023-03-24T11:41:00;4.37;;;3.97;;
3975;SDS011;2002;48.812;9.180;2023-03-24T11:43:29;5.63;;;5.10;;
3975;SDS011;2002;48.812;9.180;2023-03-24T11:48:24;5.03;;;4.53;;
3975;SDS011;2002;48.812;9.180;2023-03-24T11:50:54;4.57;;;4.17;;
3975;SDS011;2002;48.812;9.180;2023-03-24T11:53:23;5.20;;;4.30;;
3975;SDS011;2002;48.812;9.180;2023-03-24T11:56:04;7.10;;;4.60;;
3975;SDS011;2002;48.812;9.180;2023-03-24T11:58:46;4.47;;;4.03;;
3975;SDS011;2002;48.812;9.180;2023-03-24T12:01:22;4.80;;;4.30;;
3975;SDS011;2002;48.812;9.180;2023-03-24T12:04:04;5.00;;;3.87;;
3975;SDS011;2002;48.812;9.180;2023-03-24T12:09:28;5.10;;;4.60;;
3975;SDS011;2002;48.812;9.180;2023-03-24T12:12:20;5.40;;;4.90;;
3975;SDS011;2002;48.812;9.180;2023-03-24T12:17:48;5.37;;;4.87;;
3975;SDS011;2002;48.812;9.180;2023-03-24T12:20:22;4.80;;;4.30;;
3975;SDS011;2002;48.812;9.180;2023-03-24T12:25:59;5.30;;;4.30;;
3975;SDS011;2002;48.812;9.180;2023-03-24T12:28:48;5.20;;;4.10;;
3975;SDS011;2002;48.812;9.180;2023-03-24T12:37:59;4.20;;;3.60;;
3975;SDS011;2002;48.812;9.180;2023-03-24T12:40:37;4.33;;;3.90;;
3975;SDS011;2002;48.812;9.180;2023-03-24T12:43:23;5.70;;;3.60;;
3975;SDS011;2002;48.812;9.180;2023-03-24T12:45:58;4.43;;;4.03;;
3975;SDS011;2002;48.812;9.180;2023-03-24T12:48:49;6.00;;;4.57;;
3975;SDS011;2002;48.812;9.180;2023-03-24T12:51:29;4.37;;;3.97;;
3975;SDS011;2002;48.812;9.180;2023-03-24T12:54:17;4.83;;;4.33;;
3975;SDS011;2002;48.812;9.180;2023-03-24T12:57:11;4.40;;;4.00;;
3975;SDS011;2002;48.812;9.180;2023-03-24T13:02:38;5.07;;;4.57;;
3975;SDS011;2002;48.812;9.180;2023-03-24T13:05:31;4.97;;;4.40;;
3975;SDS011;2002;48.812;9.180;2023-03-24T13:08:01;3.83;;;3.43;;
3975;SDS011;2002;48.812;9.180;2023-03-24T13:10:31;5.33;;;4.10;;
3975;SDS011;2002;48.812;9.180;2023-03-24T13:13:12;5.03;;;4.53;;
3975;SDS011;2002;48.812;9.180;2023-03-24T13:15:42;6.00;;;4.60;;
3975;SDS011;2002;48.812;9.180;2023-03-24T13:21:10;3.97;;;3.57;;
3975;SDS011;2002;48.812;9.180;2023-03-24T13:32:06;4.30;;;3.90;;
3975;SDS011;2002;48.812;9.180;2023-03-24T13:37:19;4.60;;;3.57;;
3975;SDS011;2002;48.812;9.180;2023-03-24T13:39:48;4.93;;;4.30;;
3975;SDS011;2002;48.812;9.180;2023-03-24T13:42:32;4.57;;;3.60;;
3975;SDS011;2002;48.812;9.180;2023-03-24T13:45:02;4.00;;;3.70;;
3975;SDS011;2002;48.812;9.180;2023-03-24T13:47:46;4.07;;;3.40;;
3975;SDS011;2002;48.812;9.180;2023-03-24T13:50:14;3.87;;;3.57;;
3975;SDS011;2002;48.812;9.180;2023-03-24T13:52:44;4.60;;;4.10;;
3975;SDS011;2002;48.812;9.180;2023-03-24T13:55:23;3.53;;;3.23;;
3975;SDS011;2002;48.812;9.180;2023-03-24T13:57:55;3.60;;;3.30;;
3975;SDS011;2002;48.812;9.180;2023-03-24T14:00:28;5.00;;;3.93;;
3975;SDS011;2002;48.812;9.180;2023-03-24T14:02:55;3.93;;;3.60;;
3975;SDS011;2002;48.812;9.180;2023-03-24T14:05:31;4.43;;;4.03;;
3975;SDS011;2002;48.812;9.180;2023-03-24T14:10:37;3.97;;;3.47;;
3975;SDS011;2002;48.812;9.180;2023-03-24T14:18:37;4.77;;;4.33;;
3975;SDS011;2002;48.812;9.180;2023-03-24T14:21:02;4.47;;;3.53;;
3975;SDS011;2002;48.812;9.180;2023-03-24T14:26:07;4.00;;;3.70;;
3975;SDS011;2002;48.812;9.180;2023-03-24T14:28:38;4.77;;;4.37;;
3975;SDS011;2002;48.812;9.180;2023-03-24T14:31:08;4.07;;;3.40;;
3975;SDS011;2002;48.812;9.180;2023-03-24T14:33:39;3.93;;;3.20;;
3975;SDS011;2002;48.812;9.180;2023-03-24T14:36:08;4.27;;;3.87;;
3975;SDS011;2002;48.812;9.180;2023-03-24T14:38:41;3.77;;;3.33;;
3975;SDS011;2002;48.812;9.180;2023-03-24T14:41:15;4.07;;;3.50;;
3975;SDS011;2002;48.812;9.180;2023-03-24T15:05:28;4.10;;;3.73;;
3975;SDS011;2002;48.812;9.180;2023-03-24T15:08:03;4.67;;;4.10;;
3975;SDS011;2002;48.812;9.180;2023-03-24T15:11:18;4.80;;;3.93;;
3975;SDS011;2002;48.812;9.180;2023-03-24T15:21:29;4.83;;;3.43;;
3975;SDS011;2002;48.812;9.180;2023-03-24T15:23:56;4.93;;;3.77;;
3975;SDS011;2002;48.812;9.180;2023-03-24T15:26:23;4.43;;;4.03;;
3975;SDS011;2002;48.812;9.180;2023-03-24T15:28:56;4.17;;;3.77;;
3975;SDS011;2002;48.812;9.180;2023-03-24T15:31:24;4.20;;;3.80;;
3975;SDS011;2002;48.812;9.180;2023-03-24T15:34:00;4.30;;;3.73;;
3975;SDS011;2002;48.812;9.180;2023-03-24T15:36:52;3.17;;;2.87;;
3975;SDS011;2002;48.812;9.180;2023-03-24T15:39:35;2.80;;;2.50;;
3975;SDS011;2002;48.812;9.180;2023-03-24T15:42:05;4.63;;;3.43;;
3975;SDS011;2002;48.812;9.180;2023-03-24T15:44:35;4.20;;;3.80;;
3975;SDS011;2002;48.812;9.180;2023-03-24T15:47:04;5.00;;;3.53;;
3975;SDS011;2002;48.812;9.180;2023-03-24T15:49:44;3.80;;;3.40;;
3975;SDS011;2002;48.812;9.180;2023-03-24T15:52:23;4.30;;;3.30;;
3975;SDS011;2002;48.812;9.180;2023-03-24T15:54:54;3.47;;;3.17;;
3975;SDS011;2002;48.812;9.180;2023-03-24T15:57:23;4.07;;;3.60;;
3975;SDS011;2002;48.812;9.180;2023-03-24T16:07:53;3.83;;;3.33;;
3975;SDS011;2002;48.812;9.180;2023-03-24T16:10:32;3.70;;;3.00;;
3975;SDS011;2002;48.812;9.180;2023-03-24T16:13:22;3.23;;;2.93;;
3975;SDS011;2002;48.812;9.180;2023-03-24T16:15:52;3.13;;;2.87;;
3975;SDS011;2002;48.812;9.180;2023-03-24T16:18:22;3.30;;;3.00;;
3975;SDS011;2002;48.812;9.180;2023-03-24T16:20:53;3.03;;;2.80;;
3975;SDS011;2002;48.812;9.180;2023-03-24T16:23:19;2.90;;;2.60;;
3975;SDS011;2002;48.812;9.180;2023-03-24T16:25:45;3.57;;;3.27;;
3975;SDS011;2002;48.812;9.180;2023-03-24T16:28:11;3.57;;;3.27;;
3975;SDS011;2002;48.812;9.180;2023-03-24T16:30:40;2.83;;;2.63;;
3975;SDS011;2002;48.812;9.180;2023-03-24T16:33:06;3.53;;;2.97;;
3975;SDS011;2002;48.812;9.180;2023-03-24T16:35:32;3.47;;;3.17;;
3975;SDS011;2002;48.812;9.180;2023-03-24T16:38:00;3.90;;;3.17;;
3975;SDS011;2002;48.812;9.180;2023-03-24T16:40:39;4.10;;;3.50;;
3975;SDS011;2002;48.812;9.180;2023-03-24T16:43:08;3.77;;;3.47;;
3975;SDS011;2002;48.812;9.180;2023-03-24T16:45:34;3.20;;;2.83;;
3975;SDS011;2002;48.812;9.180;2023-03-24T16:48:00;3.53;;;3.17;;
3975;SDS011;2002;48.812;9.180;2023-03-24T16:50:34;3.70;;;3.30;;
3975;SDS011;2002;48.812;9.180;2023-03-24T16:53:13;3.40;;;3.10;;
3975;SDS011;2002;48.812;9.180;2023-03-24T16:55:39;3.57;;;3.27;;
3975;SDS011;2002;48.812;9.180;2023-03-24T16:58:06;3.10;;;2.80;;
3975;SDS011;2002;48.812;9.180;2023-03-24T17:00:34;3.70;;;3.40;;
3975;SDS011;2002;48.812;9.180;2023-03-24T17:03:01;3.33;;;3.03;;
3975;SDS011;2002;48.812;9.180;2023-03-24T17:05:28;3.10;;;2.80;;
3975;SDS011;2002;48.812;9.180;2023-03-24T17:07:58;3.27;;;3.00;;
3975;SDS011;2002;48.812;9.180;2023-03-24T17:10:23;3.47;;;3.17;;
3975;SDS011;2002;48.812;9.180;2023-03-24T17:12:51;3.50;;;3.20;;
3975;SDS011;2002;48.812;9.180;2023-03-24T17:15:22;3.33;;;3.00;;
3975;SDS011;2002;48.812;9.180;2023-03-24T17:17:50;3.03;;;2.70;;
3975;SDS011;2002;48.812;9.180;2023-03-24T17:20:16;3.33;;;2.87;;
3975;SDS011;2002;48.812;9.180;2023-03-24T17:22:43;3.30;;;3.00;;
3975;SDS011;2002;48.812;9.180;2023-03-24T17:25:11;3.60;;;2.67;;
3975;SDS011;2002;48.812;9.180;2023-03-24T17:27:38;2.63;;;2.33;;
3975;SDS011;2002;48.812;9.180;2023-03-24T17:30:04;2.80;;;2.60;;
3975;SDS011;2002;48.812;9.180;2023-03-24T17:32:31;2.70;;;2.50;;
3975;SDS011;2002;48.812;9.180;2023-03-24T17:34:58;3.07;;;2.83;;
3975;SDS011;2002;48.812;9.180;2023-03-24T17:37:26;3.33;;;2.90;;
3975;SDS011;2002;48.812;9.180;2023-03-24T17:39:55;3.40;;;3.10;;
3975;SDS011;2002;48.812;9.180;2023-03-24T17:42:25;2.83;;;2.60;;
3975;SDS011;2002;48.812;9.180;2023-03-24T17:44:51;2.77;;;2.43;;
3975;SDS011;2002;48.812;9.180;2023-03-24T17:47:17;2.60;;;2.40;;
3975;SDS011;2002;48.812;9.180;2023-03-24T17:49:43;2.97;;;2.77;;
3975;SDS011;2002;48.812;9.180;2023-03-24T17:52:09;2.93;;;2.63;;
3975;SDS011;2002;48.812;9.180;2023-03-24T17:54:35;3.20;;;2.87;;
3975;SDS011;2002;48.812;9.180;2023-03-24T17:57:00;3.10;;;2.80;;
3975;SDS011;2002;48.812;9.180;2023-03-24T17:59:26;3.23;;;2.97;;